Time;durP1;ratioP1;P1;durP2;ratioP2;P2;SDS_P1;SDS_P2;PMS_P1;PMS_P2;Temp;Humidity;BMP_temperature;BMP_pressure;BME280_temperature;BME280_humidity;BME280_pressure;Samples;Min_cycle;Max_cycle;Signal;HPM_P1;HPM_P2
2023/09/26 00:01:30;;;;;;;8.75;3.90;;;21.00;99.90;;;;;;5032693;28;20083;-85
2023/09/26 00:03:55;;;;;;;10.32;4.18;;;21.00;99.90;;;;;;5032669;28;20103;-85
2023/09/26 00:06:22;;;;;;;17.85;4.70;;;21.10;99.90;;;;;;5033054;28;20494;-85
2023/09/26 00:08:49;;;;;;;9.50;4.85;;;21.10;99.90;;;;;;5030573;28;20474;-86
2023/09/26 00:11:15;;;;;;;21.75;4.93;;;21.10;99.90;;;;;;5031782;28;20025;-84
2023/09/26 00:13:42;;;;;;;13.05;4.32;;;21.20;99.90;;;;;;5032522;28;20042;-85
2023/09/26 00:16:07;;;;;;;14.18;4.70;;;21.30;99.90;;;;;;5032316;28;20533;-85
2023/09/26 00:18:33;;;;;;;10.35;4.50;;;21.30;99.90;;;;;;5031207;28;20053;-85
2023/09/26 00:20:58;;;;;;;7.72;4.22;;;21.30;99.90;;;;;;5030810;28;20080;-83
2023/09/26 00:23:24;;;;;;;10.88;4.93;;;21.30;99.90;;;;;;5031866;28;20033;-84
2023/09/26 00:25:50;;;;;;;13.10;4.35;;;21.40;99.90;;;;;;5031829;28;20559;-85
2023/09/26 00:28:15;;;;;;;8.07;4.60;;;21.40;99.90;;;;;;5029942;28;20079;-82
2023/09/26 00:30:42;;;;;;;10.85;4.65;;;21.30;99.90;;;;;;5031600;28;20033;-84
2023/09/26 00:33:08;;;;;;;7.95;3.75;;;21.20;99.90;;;;;;5031688;28;20029;-85
2023/09/26 00:35:34;;;;;;;13.77;4.18;;;21.10;99.90;;;;;;5031564;28;20044;-82
2023/09/26 00:38:00;;;;;;;15.23;4.60;;;21.10;99.90;;;;;;5031431;28;20030;-83
2023/09/26 00:40:26;;;;;;;9.18;4.13;;;21.10;99.90;;;;;;5031103;28;20383;-83
2023/09/26 00:42:52;;;;;;;9.60;4.38;;;21.10;99.90;;;;;;5031134;28;20072;-82
2023/09/26 00:45:17;;;;;;;9.18;4.70;;;21.10;99.90;;;;;;5031370;28;20056;-84
2023/09/26 00:47:44;;;;;;;18.38;4.18;;;21.10;99.90;;;;;;5030595;28;20029;-83
2023/09/26 00:50:12;;;;;;;8.50;4.03;;;21.10;99.90;;;;;;5029720;28;20026;-82
2023/09/26 00:52:51;;;;;;;11.48;4.55;;;21.10;99.90;;;;;;5031071;28;20029;-82
2023/09/26 00:55:20;;;;;;;10.93;4.32;;;21.00;99.90;;;;;;5031067;28;20033;-83
2023/09/26 00:57:46;;;;;;;12.23;4.15;;;21.00;99.90;;;;;;5030164;28;20026;-83
2023/09/26 01:00:15;;;;;;;16.40;4.85;;;21.10;99.90;;;;;;5030981;28;20572;-84
2023/09/26 01:02:41;;;;;;;8.57;4.13;;;21.00;99.90;;;;;;5029798;28;20071;-82
2023/09/26 01:05:08;;;;;;;14.05;5.10;;;21.00;99.90;;;;;;5030744;28;20029;-84
2023/09/26 01:07:34;;;;;;;16.00;3.70;;;21.10;99.90;;;;;;5031209;28;20033;-83
2023/09/26 01:10:01;;;;;;;10.02;5.15;;;21.10;99.90;;;;;;5030095;28;20035;-82
2023/09/26 01:12:28;;;;;;;12.93;4.55;;;21.10;99.90;;;;;;5031205;28;20041;-84
2023/09/26 01:14:54;;;;;;;11.23;4.53;;;21.20;99.90;;;;;;5029749;28;20061;-84
2023/09/26 01:17:20;;;;;;;10.82;4.07;;;21.20;99.90;;;;;;5029764;28;20403;-87
2023/09/26 01:19:46;;;;;;;15.32;4.72;;;21.20;99.90;;;;;;5031535;28;20037;-87
2023/09/26 01:22:18;;;;;;;14.07;4.30;;;21.20;99.90;;;;;;5030474;28;20482;-87
2023/09/26 01:24:44;;;;;;;17.83;4.72;;;21.10;99.90;;;;;;5030648;28;20049;-85
2023/09/26 01:27:10;;;;;;;12.15;4.03;;;21.20;99.90;;;;;;5030262;28;20017;-87
2023/09/26 01:29:36;;;;;;;18.95;3.78;;;21.20;99.90;;;;;;5030101;28;20068;-86
2023/09/26 01:32:02;;;;;;;8.32;4.65;;;21.10;99.90;;;;;;5031649;28;20029;-86
2023/09/26 01:34:28;;;;;;;15.68;4.38;;;21.10;99.90;;;;;;5031300;28;20021;-87
2023/09/26 01:36:54;;;;;;;17.42;4.18;;;21.00;99.90;;;;;;5031290;28;20029;-87
2023/09/26 01:39:20;;;;;;;10.88;4.20;;;21.00;99.90;;;;;;5029862;28;20482;-85
2023/09/26 01:41:46;;;;;;;15.35;4.68;;;20.90;99.90;;;;;;5030905;28;20042;-88
2023/09/26 01:44:12;;;;;;;13.15;4.80;;;20.90;99.90;;;;;;5030049;28;20033;-87
2023/09/26 01:46:37;;;;;;;13.32;4.93;;;20.90;99.90;;;;;;5029933;28;20029;-86
2023/09/26 01:49:03;;;;;;;9.70;4.57;;;20.80;99.90;;;;;;5031173;28;20030;-87
2023/09/26 01:51:29;;;;;;;12.43;4.57;;;20.80;99.90;;;;;;5030072;28;20036;-86
2023/09/26 01:53:54;;;;;;;12.18;3.88;;;20.80;99.90;;;;;;5029788;28;20022;-87
2023/09/26 01:56:21;;;;;;;10.25;4.55;;;20.80;99.90;;;;;;5030054;28;20368;-87
2023/09/26 01:58:47;;;;;;;15.02;4.22;;;20.80;99.90;;;;;;5031280;28;20021;-86
2023/09/26 02:01:13;;;;;;;11.45;4.55;;;20.80;99.90;;;;;;5030632;28;20441;-87
2023/09/26 02:03:39;;;;;;;13.60;4.60;;;20.80;99.90;;;;;;5029422;28;20522;-87
2023/09/26 02:06:04;;;;;;;10.73;4.45;;;20.90;99.90;;;;;;5029564;28;20026;-87
2023/09/26 02:08:30;;;;;;;12.48;5.07;;;20.90;99.90;;;;;;5029431;28;20032;-86
2023/09/26 02:10:56;;;;;;;17.92;5.05;;;20.90;99.90;;;;;;5030692;28;20105;-86
2023/09/26 02:13:21;;;;;;;11.52;3.95;;;20.90;99.90;;;;;;5029599;28;20038;-88
2023/09/26 02:15:47;;;;;;;20.42;5.80;;;20.90;99.90;;;;;;5029534;28;20037;-87
2023/09/26 02:18:13;;;;;;;12.02;4.65;;;20.90;99.90;;;;;;5029091;28;20033;-85
2023/09/26 02:20:38;;;;;;;11.70;5.00;;;20.90;99.90;;;;;;5029795;28;20123;-83
2023/09/26 02:23:04;;;;;;;9.77;4.10;;;20.80;99.90;;;;;;5028227;28;20037;-83
2023/09/26 02:25:29;;;;;;;12.65;5.20;;;20.80;99.90;;;;;;5029559;28;20026;-84
2023/09/26 02:27:55;;;;;;;13.30;4.72;;;20.80;99.90;;;;;;5029290;28;20118;-86
2023/09/26 02:30:23;;;;;;;11.73;4.55;;;20.80;99.90;;;;;;5028856;28;20513;-83
2023/09/26 02:32:49;;;;;;;17.13;5.05;;;20.80;99.90;;;;;;5030415;28;20427;-87
2023/09/26 02:35:16;;;;;;;21.60;5.15;;;20.80;99.90;;;;;;5028148;28;20025;-84
2023/09/26 02:37:43;;;;;;;8.05;4.13;;;20.80;99.90;;;;;;5028167;28;20033;-84
2023/09/26 02:40:10;;;;;;;12.57;4.75;;;20.70;99.90;;;;;;5029532;28;20100;-84
2023/09/26 02:42:40;;;;;;;8.10;4.18;;;20.70;99.90;;;;;;5029466;28;20056;-85
2023/09/26 02:45:07;;;;;;;13.60;4.70;;;20.70;99.90;;;;;;5028300;28;20036;-86
2023/09/26 02:47:33;;;;;;;8.02;4.00;;;20.60;99.90;;;;;;5027964;28;20032;-87
2023/09/26 02:49:59;;;;;;;10.13;5.03;;;20.60;99.90;;;;;;5028715;28;20029;-87
2023/09/26 02:52:25;;;;;;;16.33;5.38;;;20.60;99.90;;;;;;5027909;28;20021;-83
2023/09/26 02:54:51;;;;;;;10.32;4.43;;;20.50;99.90;;;;;;5027796;28;20029;-86
2023/09/26 02:57:18;;;;;;;15.48;5.05;;;20.40;99.90;;;;;;5029640;28;20041;-86
2023/09/26 02:59:44;;;;;;;7.05;3.90;;;20.40;99.90;;;;;;5028365;28;20065;-84
2023/09/26 03:02:10;;;;;;;11.15;4.80;;;20.40;99.90;;;;;;5029800;28;20057;-85
2023/09/26 03:04:36;;;;;;;8.80;4.55;;;20.40;99.90;;;;;;5029567;28;20037;-86
2023/09/26 03:07:01;;;;;;;8.63;4.63;;;20.40;99.90;;;;;;5029333;28;20068;-84
2023/09/26 03:09:28;;;;;;;16.00;4.57;;;20.30;99.90;;;;;;5046178;28;20029;-83
2023/09/26 03:11:53;;;;;;;11.63;4.57;;;20.30;99.90;;;;;;5048852;28;20025;-85
2023/09/26 03:14:20;;;;;;;13.63;4.45;;;20.20;99.90;;;;;;5049130;28;20033;-82
2023/09/26 03:16:45;;;;;;;12.40;5.00;;;20.20;99.90;;;;;;5048500;28;20053;-83
2023/09/26 03:19:11;;;;;;;12.13;4.20;;;20.20;99.90;;;;;;5048305;28;20033;-84
2023/09/26 03:21:37;;;;;;;9.27;5.30;;;20.10;99.90;;;;;;5051236;28;20041;-82
2023/09/26 03:24:03;;;;;;;13.80;4.75;;;20.10;99.90;;;;;;5052684;28;20020;-83
2023/09/26 03:26:29;;;;;;;16.42;4.75;;;20.00;99.90;;;;;;5053042;28;20032;-87
2023/09/26 03:28:55;;;;;;;16.23;4.80;;;19.90;99.90;;;;;;5052100;28;20039;-86
2023/09/26 03:31:20;;;;;;;13.43;5.28;;;19.80;99.90;;;;;;5053578;28;20035;-85
2023/09/26 03:33:47;;;;;;;8.43;4.93;;;19.80;99.90;;;;;;5051592;28;20127;-86
2023/09/26 03:36:13;;;;;;;12.65;4.53;;;19.70;99.90;;;;;;5051488;28;20138;-83
2023/09/26 03:38:39;;;;;;;8.85;4.32;;;19.80;99.90;;;;;;5052763;28;20056;-84
2023/09/26 03:41:06;;;;;;;16.13;5.03;;;19.80;99.90;;;;;;5051143;28;20128;-85
2023/09/26 03:43:32;;;;;;;15.55;4.82;;;19.80;99.90;;;;;;5052220;28;20049;-84
2023/09/26 03:46:02;;;;;;;10.20;4.60;;;19.80;99.90;;;;;;5051171;28;20525;-85
2023/09/26 03:48:29;;;;;;;11.95;4.60;;;19.80;99.90;;;;;;5052482;28;20390;-85
2023/09/26 03:50:55;;;;;;;15.07;4.82;;;19.70;99.90;;;;;;5051192;28;20077;-85
2023/09/26 03:53:21;;;;;;;13.38;4.90;;;19.70;99.90;;;;;;5051327;28;20118;-85
2023/09/26 03:55:56;;;;;;;11.88;4.82;;;19.70;99.90;;;;;;5052261;28;20489;-85
2023/09/26 03:58:21;;;;;;;17.35;4.70;;;19.70;99.90;;;;;;5051820;28;20116;-85
2023/09/26 04:00:47;;;;;;;16.58;5.10;;;19.70;99.90;;;;;;5052142;28;20178;-85
2023/09/26 04:03:13;;;;;;;10.90;4.55;;;19.90;99.90;;;;;;5052158;28;20524;-83
2023/09/26 04:05:40;;;;;;;11.98;4.78;;;19.90;99.90;;;;;;5050689;28;20025;-83
2023/09/26 04:08:05;;;;;;;9.65;4.45;;;19.90;99.90;;;;;;5052319;28;20542;-83
2023/09/26 04:10:36;;;;;;;11.27;4.25;;;19.90;99.90;;;;;;5050813;28;20127;-85
2023/09/26 04:13:02;;;;;;;8.27;4.30;;;20.00;99.90;;;;;;5051488;28;20087;-85
2023/09/26 04:15:28;;;;;;;11.98;4.15;;;20.00;99.90;;;;;;5052256;28;20037;-82
2023/09/26 04:17:54;;;;;;;11.02;4.18;;;20.00;99.90;;;;;;5051789;28;20567;-84
2023/09/26 04:20:20;;;;;;;11.05;4.43;;;19.90;99.90;;;;;;5051955;28;20024;-84
2023/09/26 04:22:47;;;;;;;14.68;4.25;;;20.00;99.90;;;;;;5050840;28;20044;-84
2023/09/26 04:25:13;;;;;;;12.95;4.90;;;19.90;99.90;;;;;;5050570;28;20024;-84
2023/09/26 04:27:38;;;;;;;10.10;5.32;;;19.80;99.90;;;;;;5052028;28;20031;-84
2023/09/26 04:30:06;;;;;;;12.90;5.07;;;19.80;99.90;;;;;;5050259;28;20033;-85
2023/09/26 04:32:32;;;;;;;11.82;5.00;;;19.80;99.90;;;;;;5050075;28;20035;-85
2023/09/26 04:34:57;;;;;;;18.20;5.25;;;19.70;99.90;;;;;;5051675;28;20108;-83
2023/09/26 04:37:23;;;;;;;11.32;5.30;;;19.70;99.90;;;;;;5051847;28;20596;-85
2023/09/26 04:39:49;;;;;;;12.68;4.63;;;19.70;99.90;;;;;;5050293;28;20064;-88
2023/09/26 04:42:15;;;;;;;9.73;4.88;;;19.70;99.90;;;;;;5050804;28;20021;-86
2023/09/26 04:44:40;;;;;;;14.05;5.05;;;19.70;99.90;;;;;;5052440;28;20501;-87
2023/09/26 04:47:06;;;;;;;9.15;4.30;;;19.80;99.90;;;;;;5052280;28;20024;-87
2023/09/26 04:49:34;;;;;;;20.15;6.10;;;19.80;99.90;;;;;;5051959;28;20470;-85
2023/09/26 04:52:01;;;;;;;16.38;4.45;;;19.80;99.90;;;;;;5051425;28;20067;-86
2023/09/26 04:54:27;;;;;;;13.10;4.68;;;19.80;99.90;;;;;;5050765;28;20036;-89
2023/09/26 04:56:53;;;;;;;16.77;4.68;;;19.80;99.90;;;;;;5050772;28;20037;-85
2023/09/26 04:59:19;;;;;;;14.40;5.25;;;19.80;99.90;;;;;;5050231;28;20490;-88
2023/09/26 05:01:45;;;;;;;8.75;4.75;;;19.90;99.90;;;;;;5051739;28;20025;-85
2023/09/26 05:04:11;;;;;;;17.00;5.45;;;19.90;99.90;;;;;;5051431;28;20139;-87
2023/09/26 05:06:37;;;;;;;13.02;4.78;;;19.90;99.90;;;;;;5050006;28;20029;-87
2023/09/26 05:09:05;;;;;;;10.10;4.32;;;19.90;99.90;;;;;;5050388;28;20098;-88
2023/09/26 05:11:31;;;;;;;12.18;4.40;;;19.90;99.90;;;;;;5050446;28;20033;-89
2023/09/26 05:13:57;;;;;;;11.18;4.50;;;20.00;99.90;;;;;;5051511;28;20040;-86
2023/09/26 05:16:23;;;;;;;9.13;4.53;;;20.00;99.90;;;;;;5050086;28;20041;-89
2023/09/26 05:18:48;;;;;;;12.80;4.72;;;20.00;99.90;;;;;;5050378;28;20021;-85
2023/09/26 05:21:14;;;;;;;8.40;4.57;;;20.10;99.90;;;;;;5049015;28;20048;-85
2023/09/26 05:23:40;;;;;;;9.18;5.03;;;20.10;99.90;;;;;;5050410;28;20524;-83
2023/09/26 05:26:06;;;;;;;13.93;4.35;;;20.10;99.90;;;;;;5048882;28;20064;-83
2023/09/26 05:28:32;;;;;;;16.60;4.80;;;20.20;99.90;;;;;;5048962;28;20670;-82
2023/09/26 05:30:58;;;;;;;15.00;5.93;;;20.20;99.90;;;;;;5050178;28;20239;-84
2023/09/26 05:33:24;;;;;;;8.15;4.40;;;20.20;99.90;;;;;;5048983;28;20033;-85
2023/09/26 05:35:49;;;;;;;16.02;4.60;;;20.30;99.90;;;;;;5050257;28;20078;-83
2023/09/26 05:38:15;;;;;;;21.67;4.80;;;20.40;99.90;;;;;;5050234;28;20076;-83
2023/09/26 05:40:40;;;;;;;8.80;4.20;;;20.50;99.90;;;;;;5050154;28;20475;-84
2023/09/26 05:43:06;;;;;;;13.98;5.00;;;20.60;99.90;;;;;;5048421;28;20021;-85
2023/09/26 05:45:32;;;;;;;11.07;4.07;;;20.70;99.90;;;;;;5048723;28;20036;-87
2023/09/26 05:47:58;;;;;;;16.75;5.65;;;20.80;99.90;;;;;;5049809;28;20020;-84
2023/09/26 05:50:23;;;;;;;11.40;4.38;;;20.90;99.90;;;;;;5050479;28;20037;-87
2023/09/26 05:52:49;;;;;;;10.10;5.00;;;20.90;99.90;;;;;;5049102;28;20501;-85
2023/09/26 05:55:15;;;;;;;10.95;4.57;;;21.00;99.90;;;;;;5048838;28;20494;-86
2023/09/26 05:57:40;;;;;;;15.25;4.53;;;21.00;99.90;;;;;;5048898;28;20107;-85
2023/09/26 06:00:12;;;;;;;12.27;4.22;;;21.10;99.90;;;;;;5049451;28;20083;-83
2023/09/26 06:02:38;;;;;;;14.05;4.22;;;21.20;99.90;;;;;;5048544;28;20506;-85
2023/09/26 06:05:04;;;;;;;17.02;4.18;;;21.30;99.90;;;;;;5049706;28;20025;-84
2023/09/26 06:07:30;;;;;;;12.13;4.53;;;21.30;99.90;;;;;;5049347;28;20509;-83
2023/09/26 06:09:56;;;;;;;13.65;4.18;;;21.30;99.90;;;;;;5049603;28;20028;-82
2023/09/26 06:12:22;;;;;;;10.65;4.32;;;21.50;99.90;;;;;;5050749;28;20079;-82
2023/09/26 06:14:47;;;;;;;12.80;3.63;;;21.60;99.90;;;;;;5050002;28;20489;-83
2023/09/26 06:17:13;;;;;;;8.63;3.78;;;21.70;99.90;;;;;;5048997;28;20063;-82
2023/09/26 06:19:39;;;;;;;13.20;4.70;;;21.90;99.90;;;;;;5049777;28;20036;-82
2023/09/26 06:22:06;;;;;;;12.05;4.35;;;22.00;99.90;;;;;;5041871;28;20064;-83
2023/09/26 06:24:31;;;;;;;11.50;4.28;;;22.30;99.90;;;;;;5029335;28;20025;-82
2023/09/26 06:26:58;;;;;;;17.00;4.95;;;22.70;99.90;;;;;;5028846;28;20033;-83
2023/09/26 06:29:23;;;;;;;9.32;4.78;;;23.00;99.90;;;;;;5028812;28;20144;-82
2023/09/26 06:31:49;;;;;;;16.05;4.30;;;23.60;99.90;;;;;;5030122;28;20546;-82
2023/09/26 06:34:15;;;;;;;18.58;4.47;;;24.10;97.60;;;;;;5045459;28;20030;-81
2023/09/26 06:36:41;;;;;;;14.65;3.47;;;24.40;95.30;;;;;;5030172;28;20022;-79
2023/09/26 06:39:09;;;;;;;17.42;4.95;;;24.80;93.30;;;;;;5030085;28;20641;-84
2023/09/26 06:41:34;;;;;;;15.13;4.22;;;25.20;92.50;;;;;;5032445;28;20501;-83
2023/09/26 06:44:00;;;;;;;11.55;3.75;;;25.50;90.20;;;;;;5037006;28;20076;-85
2023/09/26 06:46:28;;;;;;;11.88;4.22;;;25.80;87.60;;;;;;5033134;28;20324;-84
2023/09/26 06:48:53;;;;;;;13.15;4.32;;;26.20;84.60;;;;;;5033462;28;20056;-83
2023/09/26 06:51:19;;;;;;;12.10;3.88;;;26.60;80.30;;;;;;5029595;28;20435;-84
2023/09/26 06:53:44;;;;;;;12.55;3.28;;;26.80;77.70;;;;;;5028914;28;20735;-83
2023/09/26 06:56:10;;;;;;;14.57;4.10;;;26.90;75.40;;;;;;5027338;28;20025;-83
2023/09/26 06:58:36;;;;;;;16.50;3.78;;;27.10;73.90;;;;;;5031478;28;20529;-83
2023/09/26 07:01:03;;;;;;;18.35;4.32;;;27.40;71.90;;;;;;5030345;28;20076;-82
2023/09/26 07:03:28;;;;;;;11.50;4.28;;;27.70;71.70;;;;;;5038547;28;20021;-82
2023/09/26 07:05:55;;;;;;;15.40;4.40;;;27.70;68.00;;;;;;5034721;28;20102;-83
2023/09/26 07:08:21;;;;;;;11.75;3.70;;;27.50;69.10;;;;;;5037515;28;20017;-83
2023/09/26 07:10:46;;;;;;;11.35;4.05;;;27.70;69.60;;;;;;5037517;28;20036;-84
2023/09/26 07:13:15;;;;;;;14.93;3.60;;;27.80;67.50;;;;;;5036132;28;20029;-84
2023/09/26 07:15:42;;;;;;;17.17;4.13;;;27.70;66.00;;;;;;5039094;28;20133;-82
2023/09/26 07:18:10;;;;;;;9.55;3.70;;;27.50;66.60;;;;;;5038248;28;20064;-83
2023/09/26 07:20:47;;;;;;;13.55;3.95;;;27.50;66.10;;;;;;5036078;28;20064;-83
2023/09/26 07:23:14;;;;;;;10.88;4.30;;;27.60;65.90;;;;;;5038233;28;20025;-81
2023/09/26 07:25:39;;;;;;;13.00;3.63;;;27.90;63.90;;;;;;5036773;28;20113;-80
2023/09/26 07:28:05;;;;;;;8.32;3.50;;;28.00;62.60;;;;;;5037415;28;20116;-82
2023/09/26 07:30:31;;;;;;;9.63;3.65;;;28.20;62.20;;;;;;5032676;28;20048;-81
2023/09/26 07:32:57;;;;;;;10.65;3.58;;;28.40;61.10;;;;;;5028727;28;20029;-81
2023/09/26 07:35:23;;;;;;;10.20;3.95;;;28.80;60.30;;;;;;5029069;28;20025;-82
2023/09/26 07:37:49;;;;;;;18.65;4.38;;;29.10;59.70;;;;;;5034701;28;20049;-82
2023/09/26 07:40:14;;;;;;;12.65;4.53;;;29.30;59.00;;;;;;5047650;28;20075;-81
2023/09/26 07:42:41;;;;;;;15.80;4.18;;;29.40;58.10;;;;;;5027092;28;20406;-82
2023/09/26 07:45:07;;;;;;;13.02;4.38;;;29.20;59.20;;;;;;5027176;28;20025;-84
2023/09/26 07:47:33;;;;;;;17.55;4.22;;;28.70;60.20;;;;;;5028342;28;20017;-83
2023/09/26 07:49:59;;;;;;;9.57;4.10;;;28.30;61.00;;;;;;5028525;28;20056;-83
2023/09/26 07:52:26;;;;;;;15.82;4.35;;;28.00;60.40;;;;;;5036407;28;20053;-83
2023/09/26 07:54:52;;;;;;;17.83;3.67;;;27.80;61.20;;;;;;5028691;28;20223;-84
2023/09/26 07:57:19;;;;;;;12.75;4.10;;;28.00;61.00;;;;;;5028043;28;20204;-83
2023/09/26 07:59:45;;;;;;;15.80;4.68;;;28.00;60.90;;;;;;5026918;28;20029;-84
2023/09/26 08:02:11;;;;;;;20.08;4.25;;;28.00;61.00;;;;;;5027379;28;20037;-83
2023/09/26 08:04:36;;;;;;;12.68;3.97;;;27.80;61.50;;;;;;5027265;28;20030;-83
2023/09/26 08:07:02;;;;;;;12.57;4.13;;;27.40;61.90;;;;;;5041795;28;20482;-84
2023/09/26 08:09:28;;;;;;;23.85;4.40;;;27.50;62.20;;;;;;5051541;28;20383;-84
2023/09/26 08:11:53;;;;;;;9.27;4.78;;;27.50;62.50;;;;;;5050516;28;20044;-83
2023/09/26 08:14:19;;;;;;;15.13;4.00;;;27.60;62.50;;;;;;5050222;28;20025;-82
2023/09/26 08:16:44;;;;;;;14.13;3.95;;;27.40;62.20;;;;;;5051303;28;20064;-83
2023/09/26 08:19:10;;;;;;;13.35;5.30;;;27.70;62.30;;;;;;5051816;28;20021;-83
2023/09/26 08:21:36;;;;;;;10.57;4.47;;;27.90;61.30;;;;;;5051571;28;20037;-84
2023/09/26 08:24:03;;;;;;;9.60;4.32;;;28.30;60.80;;;;;;5046734;28;20039;-83
2023/09/26 08:26:29;;;;;;;14.88;4.30;;;28.70;58.90;;;;;;5044400;28;20040;-83
2023/09/26 08:28:54;;;;;;;14.43;4.30;;;29.00;60.10;;;;;;5045758;28;20021;-83
2023/09/26 08:31:20;;;;;;;19.73;4.45;;;29.40;57.50;;;;;;5049483;28;20033;-83
2023/09/26 08:33:48;;;;;;;11.45;3.95;;;29.70;56.10;;;;;;5040022;28;20037;-83
2023/09/26 08:36:19;;;;;;;22.50;5.00;;;29.90;56.70;;;;;;5038197;28;20033;-85
2023/09/26 08:38:45;;;;;;;12.32;4.75;;;30.20;55.60;;;;;;5030515;28;20414;-83
2023/09/26 08:41:11;;;;;;;24.92;4.40;;;30.30;55.00;;;;;;5031337;28;20065;-83
2023/09/26 08:43:37;;;;;;;12.90;4.55;;;30.30;53.30;;;;;;5031369;28;20116;-83
2023/09/26 08:46:05;;;;;;;13.85;4.45;;;30.40;52.70;;;;;;5031226;28;20505;-83
2023/09/26 08:48:32;;;;;;;13.70;3.80;;;30.30;53.30;;;;;;5042800;28;20096;-83
2023/09/26 08:50:58;;;;;;;14.65;4.88;;;30.20;53.80;;;;;;5049810;28;20516;-83
2023/09/26 08:53:24;;;;;;;16.10;4.30;;;30.30;54.50;;;;;;5045517;28;20033;-82
2023/09/26 08:55:49;;;;;;;11.57;3.88;;;30.70;54.80;;;;;;5047101;28;20029;-83
2023/09/26 08:58:16;;;;;;;10.55;4.88;;;30.90;53.10;;;;;;5049754;28;20028;-83
2023/09/26 09:00:43;;;;;;;11.75;4.00;;;30.90;52.00;;;;;;5030552;28;20262;-83
2023/09/26 09:03:09;;;;;;;12.55;4.25;;;30.80;52.50;;;;;;5031179;28;20065;-82
2023/09/26 09:05:35;;;;;;;12.82;4.10;;;30.80;52.00;;;;;;5031680;28;20057;-84
2023/09/26 09:08:01;;;;;;;14.35;4.32;;;30.80;52.50;;;;;;5029795;28;20060;-84
2023/09/26 09:10:27;;;;;;;18.35;4.10;;;30.90;53.30;;;;;;5031130;28;20029;-84
2023/09/26 09:13:04;;;;;;;19.48;4.55;;;31.00;51.90;;;;;;5038787;28;20028;-84
2023/09/26 09:15:30;;;;;;;9.40;3.95;;;30.90;52.10;;;;;;5031098;28;20025;-84
2023/09/26 09:17:57;;;;;;;21.05;3.90;;;30.80;52.80;;;;;;5029791;28;20084;-83
2023/09/26 09:20:34;;;;;;;19.67;5.10;;;31.20;51.00;;;;;;5037950;28;20040;-83
2023/09/26 09:23:04;;;;;;;17.42;3.97;;;31.30;50.50;;;;;;5050278;28;20502;-84
2023/09/26 09:25:38;;;;;;;10.32;3.75;;;31.20;50.60;;;;;;5049377;28;20078;-83
2023/09/26 09:28:09;;;;;;;15.75;4.43;;;31.20;50.70;;;;;;5050919;28;20039;-82
2023/09/26 09:30:44;;;;;;;9.82;4.03;;;31.20;50.40;;;;;;5051065;28;20036;-82
2023/09/26 09:33:10;;;;;;;11.82;3.83;;;31.30;50.60;;;;;;5049786;28;20132;-82
2023/09/26 09:35:37;;;;;;;12.65;4.25;;;31.40;51.00;;;;;;5050915;28;20041;-84
2023/09/26 09:38:04;;;;;;;21.42;4.13;;;31.70;51.10;;;;;;5050780;28;20040;-82
2023/09/26 09:40:31;;;;;;;10.90;3.47;;;31.60;50.00;;;;;;5049472;28;20510;-83
2023/09/26 09:42:56;;;;;;;12.60;4.53;;;31.20;50.60;;;;;;5048400;28;20090;-82
2023/09/26 09:45:22;;;;;;;14.90;4.43;;;31.00;52.60;;;;;;5049760;28;20561;-83
2023/09/26 09:47:49;;;;;;;24.20;4.40;;;31.20;51.60;;;;;;5049568;28;20040;-83
2023/09/26 09:50:15;;;;;;;18.52;4.50;;;31.20;50.40;;;;;;5050843;28;20025;-82
2023/09/26 09:52:48;;;;;;;16.25;4.40;;;31.30;50.30;;;;;;5050676;28;20033;-81
2023/09/26 09:55:22;;;;;;;12.90;3.85;;;31.50;50.10;;;;;;5050596;28;20506;-83
2023/09/26 09:57:52;;;;;;;19.23;4.40;;;31.60;50.50;;;;;;5050225;28;20036;-83
2023/09/26 10:00:22;;;;;;;12.82;4.22;;;31.70;50.40;;;;;;5050373;28;20114;-84
2023/09/26 10:02:54;;;;;;;16.33;4.38;;;31.90;48.00;;;;;;5050733;28;20029;-83
2023/09/26 10:05:21;;;;;;;10.02;3.97;;;31.80;48.10;;;;;;5049373;28;20402;-82
2023/09/26 10:07:49;;;;;;;10.48;3.63;;;32.10;47.00;;;;;;5050279;28;20482;-84
2023/09/26 10:10:17;;;;;;;11.93;3.90;;;32.20;47.00;;;;;;5051660;28;20501;-83
2023/09/26 10:12:44;;;;;;;23.98;4.45;;;32.10;46.30;;;;;;5050394;28;20025;-83
2023/09/26 10:15:11;;;;;;;18.70;4.25;;;32.00;46.70;;;;;;5048850;28;20122;-81
2023/09/26 10:17:41;;;;;;;16.17;4.70;;;31.80;47.00;;;;;;5045830;28;20046;-83
2023/09/26 10:20:10;;;;;;;15.73;4.28;;;31.40;46.30;;;;;;5049654;28;20041;-83
2023/09/26 10:22:40;;;;;;;21.98;4.22;;;31.00;47.40;;;;;;5050013;28;20029;-81
2023/09/26 10:25:07;;;;;;;14.55;4.15;;;30.30;48.60;;;;;;5050430;28;20017;-82
2023/09/26 10:27:33;;;;;;;13.93;3.80;;;29.50;49.50;;;;;;5050160;28;20461;-83
2023/09/26 10:30:01;;;;;;;14.30;4.10;;;29.00;50.60;;;;;;5049271;28;20056;-81
2023/09/26 10:32:32;;;;;;;18.25;4.22;;;28.60;50.60;;;;;;5046643;28;20020;-83
2023/09/26 10:34:58;;;;;;;15.23;3.83;;;28.30;52.50;;;;;;5040132;28;20037;-85
2023/09/26 10:37:26;;;;;;;11.23;4.57;;;28.20;52.90;;;;;;5043233;28;20540;-84
2023/09/26 10:39:52;;;;;;;13.85;3.55;;;27.90;53.30;;;;;;5047506;28;20501;-84
2023/09/26 10:42:23;;;;;;;11.32;4.32;;;27.70;54.70;;;;;;5049481;28;20074;-84
2023/09/26 10:44:50;;;;;;;10.65;3.50;;;27.50;53.40;;;;;;5047772;28;20493;-84
2023/09/26 10:47:18;;;;;;;17.25;4.00;;;27.40;54.00;;;;;;5049274;28;20086;-84
2023/09/26 10:49:44;;;;;;;19.35;3.80;;;27.30;54.90;;;;;;5048980;28;20021;-83
2023/09/26 10:52:11;;;;;;;18.10;4.10;;;27.20;56.10;;;;;;5049229;28;20178;-83
2023/09/26 10:54:37;;;;;;;11.10;4.28;;;27.30;55.80;;;;;;5042562;28;20040;-84
2023/09/26 10:57:04;;;;;;;16.52;4.63;;;27.20;51.70;;;;;;5038046;28;20100;-83
2023/09/26 10:59:30;;;;;;;22.38;4.15;;;27.20;54.20;;;;;;5037455;28;20025;-83
2023/09/26 11:01:57;;;;;;;14.57;4.22;;;27.10;55.30;;;;;;5040074;28;20854;-83
2023/09/26 11:04:34;;;;;;;15.80;3.90;;;27.10;54.30;;;;;;5036432;28;20060;-82
2023/09/26 11:07:02;;;;;;;10.43;3.85;;;27.10;53.40;;;;;;5038788;28;20040;-84
2023/09/26 11:09:28;;;;;;;11.23;3.88;;;27.10;53.50;;;;;;5033027;28;20021;-83
2023/09/26 11:11:56;;;;;;;11.65;3.03;;;27.10;53.40;;;;;;5031855;28;20033;-84
2023/09/26 11:14:22;;;;;;;21.55;3.60;;;27.10;55.60;;;;;;5028933;28;20024;-84
2023/09/26 11:16:49;;;;;;;14.55;4.10;;;27.10;55.40;;;;;;5033639;28;20053;-82
2023/09/26 11:19:14;;;;;;;21.08;3.95;;;27.10;55.50;;;;;;5042211;28;20045;-83
2023/09/26 11:21:40;;;;;;;18.15;3.72;;;27.00;53.80;;;;;;5047277;28;20122;-83
2023/09/26 11:24:23;;;;;;;21.38;4.28;;;27.10;52.40;;;;;;5048896;28;20036;-83
2023/09/26 11:26:51;;;;;;;16.25;3.55;;;27.10;54.80;;;;;;5048693;28;20133;-84
2023/09/26 11:29:18;;;;;;;15.40;3.92;;;27.20;54.90;;;;;;5047509;28;20112;-84
2023/09/26 11:31:45;;;;;;;15.48;4.18;;;27.10;53.20;;;;;;5047694;28;20032;-83
2023/09/26 11:34:11;;;;;;;12.50;4.00;;;27.10;54.00;;;;;;5047144;28;20075;-84
2023/09/26 11:36:40;;;;;;;11.70;3.60;;;27.10;55.00;;;;;;5048714;28;20082;-83
2023/09/26 11:39:08;;;;;;;15.98;3.35;;;27.00;56.10;;;;;;5047495;28;20414;-83
2023/09/26 11:41:34;;;;;;;14.57;3.97;;;27.10;52.90;;;;;;5051293;28;20036;-84
2023/09/26 11:44:10;;;;;;;14.20;3.78;;;27.10;53.90;;;;;;5051125;28;20086;-84
2023/09/26 11:46:46;;;;;;;14.95;4.05;;;27.10;54.50;;;;;;5051030;28;20029;-83
2023/09/26 11:49:12;;;;;;;9.13;3.40;;;27.20;55.50;;;;;;5052515;28;20060;-83
2023/09/26 11:51:38;;;;;;;12.43;3.78;;;27.10;56.60;;;;;;5052462;28;20498;-83
2023/09/26 11:54:05;;;;;;;6.85;3.63;;;27.10;54.30;;;;;;5051169;28;20056;-83
2023/09/26 11:56:32;;;;;;;14.10;4.32;;;27.20;54.60;;;;;;5052211;28;20021;-83
2023/09/26 11:58:57;;;;;;;9.82;3.33;;;27.10;54.50;;;;;;5052852;28;20033;-83
2023/09/26 12:01:23;;;;;;;28.77;3.55;;;27.10;53.20;;;;;;5052110;28;20504;-84
2023/09/26 12:03:49;;;;;;;17.02;3.60;;;27.10;54.20;;;;;;5052086;28;20445;-83
2023/09/26 12:06:15;;;;;;;24.48;4.03;;;26.90;54.10;;;;;;5050794;28;20398;-84
2023/09/26 12:08:41;;;;;;;9.80;3.58;;;27.00;55.90;;;;;;5051979;28;20033;-83
2023/09/26 12:11:06;;;;;;;14.57;3.17;;;27.00;55.00;;;;;;5052429;28;20013;-84
2023/09/26 12:13:32;;;;;;;15.95;3.90;;;27.10;51.90;;;;;;5051916;28;20502;-84
2023/09/26 12:15:58;;;;;;;13.07;3.72;;;27.10;51.60;;;;;;5049999;28;20052;-84
2023/09/26 12:18:24;;;;;;;23.75;3.50;;;27.10;53.30;;;;;;5050762;28;20036;-83
2023/09/26 12:20:55;;;;;;;6.55;3.35;;;27.10;53.10;;;;;;5050444;28;20379;-83
2023/09/26 12:23:21;;;;;;;8.43;2.80;;;27.20;52.20;;;;;;5051809;28;20060;-81
2023/09/26 12:25:50;;;;;;;9.93;3.03;;;27.20;52.10;;;;;;5050153;28;20053;-84
2023/09/26 12:28:17;;;;;;;13.52;3.50;;;27.10;51.00;;;;;;5051868;28;20772;-83
2023/09/26 12:30:43;;;;;;;15.82;3.60;;;27.20;50.60;;;;;;5051407;28;20043;-83
2023/09/26 12:33:09;;;;;;;10.57;3.00;;;27.20;50.00;;;;;;5050289;28;20025;-83
2023/09/26 12:35:34;;;;;;;17.40;3.40;;;27.20;48.90;;;;;;5050027;28;20039;-85